createdAt,value
2022-10-07T00:01:03.558Z,82.12
2022-10-07T00:03:33.019Z,82.28
2022-10-07T00:06:02.519Z,81.86
2022-10-07T00:08:30.881Z,81.80
2022-10-07T00:10:58.998Z,81.77
2022-10-07T00:13:27.083Z,81.50
2022-10-07T00:15:54.858Z,81.56
2022-10-07T00:18:22.689Z,82.24
2022-10-07T00:20:51.848Z,82.80
2022-10-07T00:23:19.678Z,82.85
2022-10-07T00:25:47.474Z,82.90
2022-10-07T00:28:15.306Z,82.79
2022-10-07T00:30:44.133Z,82.46
2022-10-07T00:33:11.955Z,82.29
2022-10-07T00:35:39.797Z,82.47
2022-10-07T00:38:09.017Z,81.91
2022-10-07T00:40:36.815Z,81.73
2022-10-07T00:43:20.221Z,81.71
2022-10-07T00:45:48.300Z,81.95
2022-10-07T00:48:19.779Z,82.35
2022-10-07T00:50:51.938Z,82.15
2022-10-07T00:53:22.275Z,82.04
2022-10-07T00:55:50.235Z,82.36
2022-10-07T00:58:19.324Z,82.43
2022-10-07T01:00:48.204Z,82.45
2022-10-07T01:03:16.153Z,82.76
2022-10-07T01:05:44.012Z,82.89
2022-10-07T01:08:12.244Z,83.35
2022-10-07T01:10:51.661Z,83.46
2022-10-07T01:13:32.056Z,83.21
2022-10-07T01:16:08.829Z,83.17
2022-10-07T01:18:45.741Z,83.33
2022-10-07T01:21:22.731Z,83.27
2022-10-07T01:24:15.948Z,82.90
2022-10-07T01:27:01.074Z,82.85
2022-10-07T01:29:36.235Z,82.72
2022-10-07T01:32:09.934Z,82.70
2022-10-07T01:34:40.501Z,82.54
2022-10-07T01:37:15.035Z,82.63
2022-10-07T01:39:48.117Z,82.51
2022-10-07T01:42:20.663Z,82.39
2022-10-07T01:44:58.371Z,82.74
2022-10-07T01:47:26.768Z,82.26
2022-10-07T01:49:54.617Z,82.05
2022-10-07T01:52:42.338Z,82.27
2022-10-07T01:55:47.354Z,83.36
2022-10-07T01:58:36.622Z,82.97
2022-10-07T02:01:15.166Z,83.13
2022-10-07T02:04:01.355Z,82.91
2022-10-07T02:06:39.316Z,82.84
2022-10-07T02:09:14.532Z,83.01
2022-10-07T02:11:47.399Z,82.30
2022-10-07T02:14:20.936Z,82.31
2022-10-07T02:16:52.583Z,82.19
2022-10-07T02:19:32.499Z,81.49
2022-10-07T02:22:02.700Z,81.23
2022-10-07T02:24:35.487Z,81.06
2022-10-07T02:27:11.254Z,80.72
2022-10-07T02:29:44.306Z,81.33
2022-10-07T02:32:16.225Z,81.64
2022-10-07T02:34:46.088Z,81.34
2022-10-07T02:37:19.116Z,81.47
2022-10-07T02:39:48.573Z,81.34
2022-10-07T02:42:24.107Z,80.91
2022-10-07T02:44:56.831Z,81.27
2022-10-07T02:47:31.869Z,80.69
2022-10-07T02:50:05.275Z,80.28
2022-10-07T02:52:35.336Z,80.72
2022-10-07T02:55:07.602Z,80.21
2022-10-07T02:57:39.343Z,80.56
2022-10-07T03:00:11.467Z,80.65
2022-10-07T03:02:54.007Z,80.04
2022-10-07T03:05:26.314Z,80.57
2022-10-07T03:08:00.654Z,81.46
2022-10-07T03:10:28.908Z,81.64
2022-10-07T03:12:57.831Z,82.26
2022-10-07T03:15:27.463Z,82.00
2022-10-07T03:17:56.223Z,82.35
2022-10-07T03:20:24.660Z,82.54
2022-10-07T03:22:52.543Z,82.04
2022-10-07T03:25:20.601Z,82.45
2022-10-07T03:27:48.959Z,81.52
2022-10-07T03:30:20.162Z,81.91
2022-10-07T03:32:55.016Z,81.67
2022-10-07T03:35:23.909Z,82.09
2022-10-07T03:37:51.970Z,82.19
2022-10-07T03:40:20.377Z,82.04
2022-10-07T03:42:49.991Z,82.87
2022-10-07T03:45:20.779Z,82.77
2022-10-07T03:47:48.622Z,82.91
2022-10-07T03:50:18.232Z,82.01
2022-10-07T03:52:46.145Z,82.05
2022-10-07T03:55:14.092Z,81.98
2022-10-07T03:57:58.443Z,81.17
2022-10-07T04:00:28.363Z,80.94
2022-10-07T04:02:58.174Z,81.32
2022-10-07T04:05:28.464Z,80.62
2022-10-07T04:07:56.683Z,80.56
2022-10-07T04:10:24.720Z,80.71
2022-10-07T04:12:53.160Z,80.66
2022-10-07T04:15:22.184Z,80.42
2022-10-07T04:17:50.298Z,80.58
2022-10-07T04:20:20.147Z,79.81
2022-10-07T04:22:49.354Z,80.51
2022-10-07T04:25:35.796Z,80.47
2022-10-07T04:28:16.890Z,80.63
2022-10-07T04:30:51.060Z,81.18
2022-10-07T04:33:22.321Z,80.52
2022-10-07T04:35:51.553Z,80.71
2022-10-07T04:38:25.234Z,81.01
2022-10-07T04:40:55.605Z,80.90
2022-10-07T04:43:24.375Z,80.64
2022-10-07T04:46:02.864Z,79.96
2022-10-07T04:48:31.545Z,80.08
2022-10-07T04:51:03.289Z,80.78
2022-10-07T04:53:32.648Z,80.95
2022-10-07T04:56:01.437Z,81.06
2022-10-07T04:58:31.447Z,80.48
2022-10-07T05:01:01.946Z,80.84
2022-10-07T05:03:30.876Z,80.95
2022-10-07T05:06:05.757Z,80.75
2022-10-07T05:08:36.888Z,80.28
2022-10-07T05:11:06.428Z,80.23
2022-10-07T05:13:42.945Z,80.24
2022-10-07T05:16:12.071Z,79.65
2022-10-07T05:18:40.982Z,79.04
2022-10-07T05:21:12.422Z,78.51
2022-10-07T05:23:46.006Z,78.64
2022-10-07T05:26:18.279Z,78.64
2022-10-07T05:28:51.319Z,78.36
2022-10-07T05:31:26.262Z,78.99
2022-10-07T05:33:57.536Z,78.93
2022-10-07T05:36:27.176Z,78.47
2022-10-07T05:38:59.457Z,78.16
2022-10-07T05:41:44.957Z,78.76
2022-10-07T05:44:13.771Z,78.88
2022-10-07T05:46:42.197Z,78.83
2022-10-07T05:49:10.392Z,79.08
2022-10-07T05:51:38.269Z,78.97
2022-10-07T05:54:08.622Z,78.42
2022-10-07T05:56:40.791Z,78.72
2022-10-07T05:59:10.377Z,78.46
2022-10-07T06:01:40.472Z,78.52
2022-10-07T06:04:13.744Z,79.10
2022-10-07T06:06:45.065Z,78.99
2022-10-07T06:09:33.483Z,78.12
2022-10-07T06:12:23.328Z,78.83
2022-10-07T06:14:53.355Z,78.25
2022-10-07T06:17:21.397Z,78.59
2022-10-07T06:19:51.818Z,78.67
2022-10-07T06:22:21.821Z,78.40
2022-10-07T06:24:52.027Z,79.15
2022-10-07T06:27:20.284Z,78.98
2022-10-07T06:29:48.226Z,78.99
2022-10-07T06:32:16.039Z,79.14
2022-10-07T06:34:45.322Z,79.11
2022-10-07T06:37:14.267Z,79.01
2022-10-07T06:39:42.692Z,78.57
2022-10-07T06:42:12.282Z,78.91
2022-10-07T06:44:46.918Z,79.10
2022-10-07T06:47:18.481Z,79.37
2022-10-07T06:49:47.805Z,79.46
2022-10-07T06:52:15.686Z,79.63
2022-10-07T06:54:43.749Z,80.71
2022-10-07T06:57:43.704Z,80.50
2022-10-07T07:00:04.925Z,80.59
2022-10-07T07:02:34.616Z,79.92
2022-10-07T07:05:04.719Z,79.62
2022-10-07T07:07:32.940Z,79.64
2022-10-07T07:10:01.218Z,79.71
2022-10-07T07:12:33.288Z,79.52
2022-10-07T07:15:01.858Z,79.43
2022-10-07T07:17:29.745Z,80.01
2022-10-07T07:19:58.436Z,79.70
2022-10-07T07:22:26.425Z,79.80
2022-10-07T07:24:54.229Z,80.15
2022-10-07T07:27:22.484Z,80.60
2022-10-07T07:29:51.668Z,80.97
2022-10-07T07:32:19.783Z,81.33
2022-10-07T07:34:48.335Z,81.84
2022-10-07T07:37:21.359Z,81.53
2022-10-07T07:39:52.790Z,81.46
2022-10-07T07:42:21.753Z,81.90
2022-10-07T07:44:51.281Z,82.13
2022-10-07T07:47:21.359Z,82.26
2022-10-07T07:49:50.340Z,82.34
2022-10-07T07:52:25.540Z,82.50
2022-10-07T07:54:57.903Z,82.50
2022-10-07T07:57:26.054Z,82.50
2022-10-07T07:59:55.765Z,82.33
2022-10-07T08:02:25.232Z,82.72
2022-10-07T08:04:54.715Z,82.70
2022-10-07T08:07:24.078Z,82.67
2022-10-07T08:09:51.964Z,83.04
2022-10-07T08:12:21.071Z,82.62
2022-10-07T08:14:52.130Z,82.59
2022-10-07T08:17:22.146Z,82.51
2022-10-07T08:19:50.453Z,82.78
2022-10-07T08:22:19.264Z,82.51
2022-10-07T08:24:50.790Z,82.34
2022-10-07T08:27:21.438Z,81.98
2022-10-07T08:29:49.543Z,81.81
2022-10-07T08:32:17.506Z,81.82
2022-10-07T08:34:46.670Z,81.86
2022-10-07T08:37:14.445Z,81.58
2022-10-07T08:39:42.225Z,81.74
2022-10-07T08:42:15.886Z,81.58
2022-10-07T08:44:47.626Z,81.28
2022-10-07T08:47:22.126Z,81.46
2022-10-07T08:50:04.285Z,81.40
2022-10-07T08:52:41.808Z,81.00
2022-10-07T08:55:18.547Z,80.98
2022-10-07T08:58:09.967Z,80.91
2022-10-07T09:00:43.679Z,80.98
2022-10-07T09:03:25.621Z,80.64
2022-10-07T09:05:57.061Z,80.51
2022-10-07T09:08:32.496Z,79.69
2022-10-07T09:11:15.833Z,79.54
2022-10-07T09:13:48.897Z,79.71
2022-10-07T09:16:23.032Z,79.34
2022-10-07T09:18:54.183Z,79.33
2022-10-07T09:21:28.637Z,79.15
2022-10-07T09:23:58.433Z,78.82
2022-10-07T09:26:27.661Z,78.37
2022-10-07T09:28:55.560Z,78.10
2022-10-07T09:31:25.846Z,78.24
2022-10-07T09:33:54.285Z,77.75
2022-10-07T09:36:24.947Z,77.81
2022-10-07T09:38:53.756Z,77.53
2022-10-07T09:41:30.358Z,78.12
2022-10-07T09:44:03.710Z,77.89
2022-10-07T09:46:46.788Z,77.78
2022-10-07T09:49:32.513Z,78.07
2022-10-07T09:52:03.278Z,78.13
2022-10-07T09:54:32.999Z,78.47
2022-10-07T09:57:03.483Z,78.30
2022-10-07T09:59:32.703Z,78.23
2022-10-07T10:02:23.108Z,77.89
2022-10-07T10:04:53.076Z,78.38
2022-10-07T10:07:26.477Z,77.44
2022-10-07T10:09:55.886Z,77.40
2022-10-07T10:12:26.132Z,77.23
2022-10-07T10:14:55.703Z,76.52
2022-10-07T10:17:28.151Z,76.54
2022-10-07T10:19:56.793Z,76.04
2022-10-07T10:22:28.017Z,75.95
2022-10-07T10:25:14.221Z,75.65
2022-10-07T10:27:51.917Z,75.07
2022-10-07T10:30:22.597Z,74.81
2022-10-07T10:33:14.643Z,74.38
2022-10-07T10:35:51.361Z,73.84
2022-10-07T10:38:29.986Z,73.75
2022-10-07T10:41:11.320Z,73.13
2022-10-07T10:43:56.312Z,73.29
2022-10-07T10:46:33.687Z,73.09
2022-10-07T10:49:11.705Z,73.10
2022-10-07T10:51:55.720Z,72.77
2022-10-07T10:54:32.665Z,72.80
2022-10-07T10:57:06.649Z,72.95
2022-10-07T10:59:52.315Z,72.87
2022-10-07T11:02:38.748Z,72.69
2022-10-07T11:05:14.308Z,72.68
2022-10-07T11:07:47.673Z,71.77
2022-10-07T11:10:22.518Z,71.21
2022-10-07T11:12:56.543Z,71.48
2022-10-07T11:15:27.705Z,71.34
2022-10-07T11:18:01.717Z,71.45
2022-10-07T11:20:34.727Z,71.03
2022-10-07T11:23:07.536Z,70.65
2022-10-07T11:25:43.022Z,70.76
2022-10-07T11:28:18.309Z,70.55
2022-10-07T11:30:53.547Z,70.81
2022-10-07T11:33:28.653Z,70.62
2022-10-07T11:36:00.788Z,70.91
2022-10-07T11:38:33.346Z,70.76
2022-10-07T11:41:09.155Z,70.64
2022-10-07T11:43:44.629Z,70.85
2022-10-07T11:46:20.112Z,70.50
2022-10-07T11:48:54.812Z,70.31
2022-10-07T11:51:27.944Z,70.21
2022-10-07T11:53:59.498Z,69.95
2022-10-07T11:56:33.157Z,69.70
2022-10-07T11:59:03.507Z,69.43
2022-10-07T12:01:55.229Z,69.11
2022-10-07T12:04:26.209Z,69.04
2022-10-07T12:07:31.430Z,69.11
2022-10-07T12:10:23.261Z,68.79
2022-10-07T12:12:55.603Z,68.98
2022-10-07T12:15:35.845Z,68.75
2022-10-07T12:18:30.706Z,68.00
2022-10-07T12:21:07.869Z,67.86
2022-10-07T12:23:43.478Z,67.68
2022-10-07T12:26:52.071Z,67.27
2022-10-07T12:29:28.912Z,66.83
2022-10-07T12:31:57.069Z,66.88
2022-10-07T12:34:46.037Z,66.24
2022-10-07T12:37:50.258Z,65.84
2022-10-07T12:40:23.888Z,65.31
2022-10-07T12:42:57.394Z,65.20
2022-10-07T12:45:29.174Z,65.02
2022-10-07T12:48:00.238Z,64.76
2022-10-07T12:50:31.711Z,64.36
2022-10-07T12:53:03.802Z,64.19
2022-10-07T12:55:36.989Z,64.15
2022-10-07T12:58:44.125Z,63.79
2022-10-07T13:01:26.754Z,63.45
2022-10-07T13:04:25.423Z,62.72
2022-10-07T13:07:26.574Z,62.03
2022-10-07T13:10:19.072Z,61.59
2022-10-07T13:12:51.736Z,61.30
2022-10-07T13:15:30.369Z,61.32
2022-10-07T13:18:10.673Z,61.68
2022-10-07T13:20:48.607Z,61.51
2022-10-07T13:23:19.360Z,61.15
2022-10-07T13:25:53.515Z,60.76
2022-10-07T13:28:23.894Z,60.63
2022-10-07T13:30:53.576Z,60.20
2022-10-07T13:33:26.466Z,59.74
2022-10-07T13:36:07.821Z,59.35
2022-10-07T13:38:36.111Z,59.10
2022-10-07T13:41:09.756Z,58.73
2022-10-07T13:43:38.618Z,58.43
2022-10-07T13:46:10.391Z,58.38
2022-10-07T13:48:45.590Z,58.50
2022-10-07T13:51:24.083Z,57.95
2022-10-07T13:53:55.106Z,57.61
2022-10-07T13:56:26.869Z,57.52
2022-10-07T13:58:56.619Z,57.09
2022-10-07T14:01:28.146Z,56.94
2022-10-07T14:04:11.463Z,56.94
2022-10-07T14:06:48.289Z,57.23
2022-10-07T14:09:21.939Z,56.95
2022-10-07T14:11:55.095Z,56.47
2022-10-07T14:14:27.180Z,56.29
2022-10-07T14:16:59.256Z,56.23
2022-10-07T14:19:32.958Z,56.03
2022-10-07T14:22:03.649Z,55.83
2022-10-07T14:24:32.021Z,55.59
2022-10-07T14:27:00.439Z,55.89
2022-10-07T14:29:37.623Z,55.76
2022-10-07T14:32:31.933Z,55.59
2022-10-07T14:35:22.812Z,55.73
2022-10-07T14:37:50.904Z,55.42
2022-10-07T14:40:23.283Z,55.22
2022-10-07T14:42:54.172Z,55.22
2022-10-07T14:45:22.438Z,54.87
2022-10-07T14:47:50.697Z,54.60
2022-10-07T14:50:20.350Z,54.63
2022-10-07T14:52:51.889Z,54.88
2022-10-07T14:55:23.315Z,54.82
2022-10-07T14:57:51.277Z,54.75
2022-10-07T15:00:20.975Z,54.87
2022-10-07T15:02:50.200Z,54.88
2022-10-07T15:05:19.877Z,55.04
2022-10-07T15:07:47.741Z,55.03
2022-10-07T15:10:17.268Z,54.81
2022-10-07T15:12:45.548Z,55.01
2022-10-07T15:15:14.632Z,55.05
2022-10-07T15:17:43.822Z,55.28
2022-10-07T15:20:13.921Z,55.50
2022-10-07T15:22:43.724Z,55.71
2022-10-07T15:25:12.806Z,55.67
2022-10-07T15:27:40.643Z,55.86
2022-10-07T15:30:09.714Z,56.17
2022-10-07T15:32:37.564Z,55.95
2022-10-07T15:35:05.968Z,56.14
2022-10-07T15:37:34.119Z,56.75
2022-10-07T15:40:06.546Z,57.29
2022-10-07T15:42:34.393Z,57.66
2022-10-07T15:45:02.196Z,57.95
2022-10-07T15:47:30.347Z,58.67
2022-10-07T15:49:58.188Z,59.15
2022-10-07T15:52:26.060Z,59.49
2022-10-07T15:54:54.254Z,60.32
2022-10-07T15:57:24.349Z,61.06
2022-10-07T15:59:54.714Z,61.62
2022-10-07T16:02:22.662Z,62.25
2022-10-07T16:04:50.498Z,62.60
2022-10-07T16:07:18.331Z,62.93
2022-10-07T16:09:46.142Z,63.59
2022-10-07T16:12:14.205Z,63.81
2022-10-07T16:14:43.373Z,64.78
2022-10-07T16:17:11.253Z,64.95
2022-10-07T16:19:39.045Z,65.39
2022-10-07T16:22:06.860Z,65.81
2022-10-07T16:24:35.666Z,66.25
2022-10-07T16:27:03.670Z,66.40
2022-10-07T16:29:48.913Z,66.71
2022-10-07T16:32:18.073Z,67.11
2022-10-07T16:34:46.892Z,67.24
2022-10-07T16:37:15.685Z,67.75
2022-10-07T16:39:43.465Z,67.94
2022-10-07T16:42:11.321Z,68.19
2022-10-07T16:44:39.082Z,68.40
2022-10-07T16:47:06.900Z,68.09
2022-10-07T16:49:36.464Z,68.86
2022-10-07T16:52:04.466Z,69.20
2022-10-07T16:54:35.363Z,69.28
2022-10-07T16:57:03.259Z,69.70
2022-10-07T16:59:31.051Z,69.52
2022-10-07T17:02:02.268Z,69.58
2022-10-07T17:04:30.326Z,69.66
2022-10-07T17:06:59.447Z,70.01
2022-10-07T17:09:27.281Z,70.01
2022-10-07T17:11:55.245Z,70.20
2022-10-07T17:14:23.854Z,70.31
2022-10-07T17:16:54.627Z,70.26
2022-10-07T17:19:25.526Z,70.29
2022-10-07T17:21:54.613Z,70.61
2022-10-07T17:24:25.168Z,70.87
2022-10-07T17:26:53.510Z,70.75
2022-10-07T17:29:23.310Z,70.91
2022-10-07T17:31:51.597Z,71.03
2022-10-07T17:34:21.052Z,71.33
2022-10-07T17:36:49.195Z,71.34
2022-10-07T17:39:17.232Z,71.73
2022-10-07T17:41:46.470Z,71.69
2022-10-07T17:44:14.297Z,71.60
2022-10-07T17:46:42.762Z,71.78
2022-10-07T17:49:13.223Z,71.78
2022-10-07T17:51:42.582Z,72.12
2022-10-07T17:54:12.000Z,72.09
2022-10-07T17:56:40.226Z,71.96
2022-10-07T17:59:09.478Z,71.92
2022-10-07T18:01:37.697Z,71.97
2022-10-07T18:04:07.529Z,72.22
2022-10-07T18:06:37.253Z,72.54
2022-10-07T18:09:06.745Z,72.34
2022-10-07T18:11:53.085Z,72.33
2022-10-07T18:14:39.673Z,72.69
2022-10-07T18:17:08.995Z,72.75
2022-10-07T18:19:36.791Z,72.57
2022-10-07T18:22:04.610Z,72.50
2022-10-07T18:24:32.675Z,72.31
2022-10-07T18:27:02.136Z,72.11
2022-10-07T18:29:33.079Z,71.94
2022-10-07T18:32:01.867Z,72.60
2022-10-07T18:34:29.988Z,72.41
2022-10-07T18:36:57.809Z,72.83
2022-10-07T18:39:27.364Z,73.11
2022-10-07T18:41:55.506Z,73.37
2022-10-07T18:44:23.594Z,73.02
2022-10-07T18:46:53.226Z,73.14
2022-10-07T18:49:21.108Z,73.44
2022-10-07T18:51:50.617Z,73.88
2022-10-07T18:54:18.989Z,73.67
2022-10-07T18:56:48.234Z,73.80
2022-10-07T18:59:16.414Z,74.28
2022-10-07T19:01:49.838Z,74.65
2022-10-07T19:04:20.513Z,74.69
2022-10-07T19:06:48.893Z,74.69
2022-10-07T19:09:18.816Z,74.68
2022-10-07T19:11:47.366Z,74.81
2022-10-07T19:14:14.509Z,74.94
2022-10-07T19:16:44.233Z,75.54
2022-10-07T19:19:16.841Z,75.07
2022-10-07T19:21:47.498Z,75.36
2022-10-07T19:24:16.583Z,75.44
2022-10-07T19:26:46.214Z,75.42
2022-10-07T19:29:15.285Z,75.53
2022-10-07T19:31:45.621Z,75.27
2022-10-07T19:34:16.059Z,75.51
2022-10-07T19:36:47.266Z,75.66
2022-10-07T19:39:17.248Z,75.21
2022-10-07T19:41:45.620Z,75.52
2022-10-07T19:44:13.964Z,75.68
2022-10-07T19:46:42.137Z,75.60
2022-10-07T19:49:10.576Z,75.81
2022-10-07T19:51:38.871Z,76.01
2022-10-07T19:54:09.997Z,76.07
2022-10-07T19:56:39.131Z,75.91
2022-10-07T19:59:08.800Z,76.17
2022-10-07T20:01:39.351Z,76.04
2022-10-07T20:04:09.357Z,76.00
2022-10-07T20:06:38.282Z,75.98
2022-10-07T20:09:09.478Z,76.44
2022-10-07T20:11:37.588Z,76.41
2022-10-07T20:14:06.535Z,76.73
2022-10-07T20:16:35.091Z,76.69
2022-10-07T20:19:05.674Z,76.96
2022-10-07T20:21:35.751Z,77.35
2022-10-07T20:24:05.135Z,77.05
2022-10-07T20:26:36.975Z,77.30
2022-10-07T20:29:07.041Z,76.98
2022-10-07T20:31:37.095Z,77.39
2022-10-07T20:34:05.877Z,78.00
2022-10-07T20:36:36.231Z,78.03
2022-10-07T20:39:24.156Z,78.63
2022-10-07T20:42:12.647Z,79.00
2022-10-07T20:44:40.572Z,78.99
2022-10-07T20:47:10.221Z,79.48
2022-10-07T20:49:41.132Z,79.07
2022-10-07T20:52:11.278Z,78.33
2022-10-07T20:54:39.080Z,78.31
2022-10-07T20:57:08.482Z,77.89
2022-10-07T20:59:36.273Z,77.77
2022-10-07T21:02:09.145Z,78.27
2022-10-07T21:04:37.524Z,78.68
2022-10-07T21:07:05.476Z,79.01
2022-10-07T21:09:36.501Z,79.03
2022-10-07T21:12:07.351Z,79.11
2022-10-07T21:14:37.588Z,78.53
2022-10-07T21:17:06.225Z,78.43
2022-10-07T21:19:35.638Z,78.67
2022-10-07T21:22:03.929Z,78.55
2022-10-07T21:24:34.171Z,78.66
2022-10-07T21:27:02.851Z,78.63
2022-10-07T21:29:32.135Z,78.74
2022-10-07T21:32:02.030Z,78.71
2022-10-07T21:34:30.657Z,78.73
2022-10-07T21:36:59.092Z,78.02
2022-10-07T21:39:26.915Z,78.91
2022-10-07T21:41:55.325Z,78.99
2022-10-07T21:44:23.212Z,79.27
2022-10-07T21:46:51.393Z,78.80
2022-10-07T21:49:20.546Z,79.15
2022-10-07T21:51:48.334Z,78.81
2022-10-07T21:54:16.242Z,78.88
2022-10-07T21:56:46.081Z,78.26
2022-10-07T21:59:14.506Z,78.72
2022-10-07T22:01:43.378Z,78.62
2022-10-07T22:04:17.423Z,78.58
2022-10-07T22:07:19.275Z,78.64
2022-10-07T22:09:47.236Z,77.87
2022-10-07T22:12:15.515Z,77.39
2022-10-07T22:14:44.524Z,77.51
2022-10-07T22:17:14.097Z,77.94
2022-10-07T22:19:41.977Z,78.07
2022-10-07T22:22:12.516Z,77.56
2022-10-07T22:24:40.389Z,77.42
2022-10-07T22:27:08.189Z,77.34
2022-10-07T22:29:38.176Z,77.53
2022-10-07T22:32:06.024Z,77.09
2022-10-07T22:35:02.997Z,76.94
2022-10-07T22:37:32.317Z,77.23
2022-10-07T22:40:00.116Z,77.05
2022-10-07T22:42:27.906Z,76.91
2022-10-07T22:44:55.720Z,77.15
2022-10-07T22:47:23.485Z,77.21
2022-10-07T22:49:51.280Z,76.81
2022-10-07T22:52:19.065Z,76.76
2022-10-07T22:54:48.203Z,76.49
2022-10-07T22:57:16.558Z,77.14
2022-10-07T22:59:44.328Z,76.48
2022-10-07T23:02:12.188Z,76.99
2022-10-07T23:04:40.163Z,77.60
2022-10-07T23:07:07.984Z,77.52
2022-10-07T23:09:35.769Z,77.06
2022-10-07T23:12:05.789Z,76.96
2022-10-07T23:14:33.653Z,77.99
2022-10-07T23:17:01.539Z,77.54
2022-10-07T23:19:30.036Z,78.16
2022-10-07T23:21:57.831Z,78.90
2022-10-07T23:24:28.217Z,78.62
2022-10-07T23:26:56.050Z,78.78
2022-10-07T23:29:26.560Z,79.37
2022-10-07T23:31:54.347Z,79.60
2022-10-07T23:34:22.115Z,79.87
2022-10-07T23:36:49.866Z,79.57
2022-10-07T23:39:18.032Z,78.90
2022-10-07T23:41:45.820Z,78.76
2022-10-07T23:44:13.674Z,78.11
2022-10-07T23:46:42.924Z,78.36
2022-10-07T23:49:10.949Z,78.57
2022-10-07T23:51:38.753Z,78.99
2022-10-07T23:54:06.645Z,79.13
2022-10-07T23:56:34.623Z,79.46
2022-10-07T23:59:03.261Z,79.41
